Time;durP1;ratioP1;P1;durP2;ratioP2;P2;SDS_P1;SDS_P2;PMS_P1;PMS_P2;Temp;Humidity;BMP_temperature;BMP_pressure;BME280_temperature;BME280_humidity;BME280_pressure;Samples;Min_cycle;Max_cycle;Signal;HPM_P1;HPM_P2
2023/05/11 00:03:16;;;;;;;9.20;6.90;;;;;;;;;;10464021;28;20028;-71
2023/05/11 00:08:16;;;;;;;9.20;7.03;;;;;;;;;;10462449;28;20251;-72
2023/05/11 00:13:16;;;;;;;8.80;6.63;;;;;;;;;;10451825;28;20466;-71
2023/05/11 00:18:17;;;;;;;14.00;6.63;;;;;;;;;;10452199;28;20028;-72
2023/05/11 00:23:17;;;;;;;8.67;6.20;;;;;;;;;;10448556;28;20114;-71
2023/05/11 00:28:17;;;;;;;11.02;7.55;;;;;;;;;;10428042;28;20079;-71
2023/05/11 00:33:18;;;;;;;12.85;7.47;;;;;;;;;;10459831;28;20029;-72
2023/05/11 00:38:18;;;;;;;13.40;8.25;;;;;;;;;;10468501;28;20459;-72
2023/05/11 00:43:19;;;;;;;10.50;8.10;;;;;;;;;;10468272;28;20051;-72
2023/05/11 00:48:19;;;;;;;12.70;8.50;;;;;;;;;;10408410;28;20511;-72
2023/05/11 00:53:20;;;;;;;10.35;8.20;;;;;;;;;;10446726;28;20028;-71
2023/05/11 00:58:20;;;;;;;11.27;7.90;;;;;;;;;;10464817;28;20025;-72
2023/05/11 01:03:21;;;;;;;8.50;7.25;;;;;;;;;;10466674;28;20032;-71
2023/05/11 01:08:23;;;;;;;15.83;7.37;;;;;;;;;;10466919;28;20119;-72
2023/05/11 01:13:31;;;;;;;9.93;7.38;;;;;;;;;;10467263;28;20029;-72
2023/05/11 01:18:38;;;;;;;12.73;8.07;;;;;;;;;;10466378;28;20032;-72
2023/05/11 01:23:42;;;;;;;12.17;8.57;;;;;;;;;;10466762;28;20538;-72
2023/05/11 01:29:02;;;;;;;14.88;7.63;;;;;;;;;;10466914;28;20612;-72
2023/05/11 01:34:10;;;;;;;12.05;8.10;;;;;;;;;;10467142;28;20025;-72
2023/05/11 01:39:11;;;;;;;11.02;7.18;;;;;;;;;;10447567;28;20031;-72
2023/05/11 01:44:12;;;;;;;14.48;10.00;;;;;;;;;;10466126;28;20044;-71
2023/05/11 01:49:13;;;;;;;11.13;7.43;;;;;;;;;;10466190;28;20167;-71
2023/05/11 01:54:13;;;;;;;17.58;8.52;;;;;;;;;;10449645;28;20033;-72
2023/05/11 01:59:16;;;;;;;21.05;10.05;;;;;;;;;;10428050;28;20025;-72
2023/05/11 02:04:18;;;;;;;14.18;9.82;;;;;;;;;;10447367;28;20036;-71
2023/05/11 02:09:20;;;;;;;14.82;8.45;;;;;;;;;;10463856;28;20136;-74
2023/05/11 02:14:22;;;;;;;11.40;8.73;;;;;;;;;;10464163;28;20025;-74
2023/05/11 02:19:23;;;;;;;12.55;8.15;;;;;;;;;;10445933;28;20457;-71
2023/05/11 02:24:26;;;;;;;13.63;8.00;;;;;;;;;;10463296;28;20111;-72
2023/05/11 02:29:26;;;;;;;12.98;9.35;;;;;;;;;;10464262;28;20701;-72
2023/05/11 02:34:27;;;;;;;14.18;7.88;;;;;;;;;;10464023;28;20079;-72
2023/05/11 02:39:31;;;;;;;14.05;7.53;;;;;;;;;;10463613;28;20467;-72
2023/05/11 02:44:34;;;;;;;10.93;6.80;;;;;;;;;;10463560;28;20504;-72
2023/05/11 02:49:35;;;;;;;9.77;6.32;;;;;;;;;;10462997;28;20053;-72
2023/05/11 02:54:36;;;;;;;14.65;7.65;;;;;;;;;;10463472;28;20036;-73
2023/05/11 02:59:36;;;;;;;11.32;7.38;;;;;;;;;;10462177;28;20494;-73
2023/05/11 03:04:40;;;;;;;12.05;7.47;;;;;;;;;;10462748;28;20055;-72
2023/05/11 03:09:40;;;;;;;10.18;6.78;;;;;;;;;;10463542;28;20111;-73
2023/05/11 03:14:41;;;;;;;12.97;7.30;;;;;;;;;;10444606;28;20024;-72
2023/05/11 03:19:42;;;;;;;11.27;7.32;;;;;;;;;;10464753;28;20278;-72
2023/05/11 03:24:42;;;;;;;12.93;7.43;;;;;;;;;;10419338;28;20375;-73
2023/05/11 03:29:44;;;;;;;13.23;7.68;;;;;;;;;;10470799;28;20019;-72
2023/05/11 03:34:44;;;;;;;18.83;8.13;;;;;;;;;;10453450;28;20024;-73
2023/05/11 03:39:46;;;;;;;15.25;8.00;;;;;;;;;;10452480;28;20024;-73
2023/05/11 03:44:48;;;;;;;13.93;8.68;;;;;;;;;;10437213;28;20483;-74
2023/05/11 03:49:49;;;;;;;15.32;8.32;;;;;;;;;;10440406;28;20053;-73
2023/05/11 03:54:49;;;;;;;11.63;7.45;;;;;;;;;;10475199;28;20040;-74
2023/05/11 03:59:50;;;;;;;13.20;7.83;;;;;;;;;;10450500;28;20027;-74
2023/05/11 04:04:51;;;;;;;12.67;8.60;;;;;;;;;;10466256;28;20551;-72
2023/05/11 04:09:52;;;;;;;15.80;8.88;;;;;;;;;;10464980;28;20355;-73
2023/05/11 04:14:52;;;;;;;14.45;9.07;;;;;;;;;;10452000;28;20483;-72
2023/05/11 04:19:52;;;;;;;14.75;10.82;;;;;;;;;;10420098;28;20563;-72
2023/05/11 04:24:53;;;;;;;17.83;11.00;;;;;;;;;;10424224;28;20021;-72
2023/05/11 04:29:53;;;;;;;20.92;9.15;;;;;;;;;;10447470;28;20028;-70
2023/05/11 04:34:54;;;;;;;16.30;10.00;;;;;;;;;;10428375;28;20425;-71
2023/05/11 04:39:55;;;;;;;19.77;11.48;;;;;;;;;;10443298;28;20069;-74
2023/05/11 04:44:55;;;;;;;17.85;10.82;;;;;;;;;;10449229;28;20470;-75
2023/05/11 04:49:56;;;;;;;17.65;11.27;;;;;;;;;;10424134;28;20084;-73
2023/05/11 04:54:56;;;;;;;22.27;12.15;;;;;;;;;;10425317;28;20453;-74
2023/05/11 04:59:56;;;;;;;20.95;12.23;;;;;;;;;;10424503;28;20061;-74
2023/05/11 05:04:56;;;;;;;22.08;12.10;;;;;;;;;;10422808;28;20047;-74
2023/05/11 05:09:57;;;;;;;21.70;12.60;;;;;;;;;;10421231;28;20056;-74
2023/05/11 05:14:57;;;;;;;26.98;12.70;;;;;;;;;;10381400;28;20029;-75
2023/05/11 05:19:57;;;;;;;21.20;13.57;;;;;;;;;;10413948;28;20091;-74
2023/05/11 05:24:58;;;;;;;22.33;13.77;;;;;;;;;;10424387;28;20467;-75
2023/05/11 05:29:58;;;;;;;22.90;13.77;;;;;;;;;;10422720;28;20031;-74
2023/05/11 05:34:59;;;;;;;21.40;12.63;;;;;;;;;;10423258;28;20078;-74
2023/05/11 05:39:59;;;;;;;24.50;13.03;;;;;;;;;;10423545;28;20033;-73
2023/05/11 05:44:59;;;;;;;22.40;12.87;;;;;;;;;;10423199;28;20562;-74
2023/05/11 05:50:00;;;;;;;24.93;14.23;;;;;;;;;;10422370;28;20053;-74
2023/05/11 05:55:00;;;;;;;25.58;14.23;;;;;;;;;;10423436;28;20766;-74
2023/05/11 06:00:00;;;;;;;23.43;13.37;;;;;;;;;;10423339;28;20075;-76
2023/05/11 06:05:01;;;;;;;25.03;12.80;;;;;;;;;;10423703;28;20255;-75
2023/05/11 06:10:01;;;;;;;18.77;11.87;;;;;;;;;;10421903;28;20170;-75
2023/05/11 06:15:02;;;;;;;21.55;11.40;;;;;;;;;;10421850;28;20025;-74
2023/05/11 06:20:02;;;;;;;22.23;12.48;;;;;;;;;;10422118;28;20424;-75
2023/05/11 06:25:09;;;;;;;26.77;13.37;;;;;;;;;;10423225;28;20009;-75
2023/05/11 06:30:13;;;;;;;24.65;13.38;;;;;;;;;;10423156;28;20784;-76
2023/05/11 06:35:29;;;;;;;24.25;13.27;;;;;;;;;;10421664;28;20474;-77
2023/05/11 06:40:38;;;;;;;28.08;14.30;;;;;;;;;;10422290;28;20039;-74
2023/05/11 06:45:42;;;;;;;27.02;14.88;;;;;;;;;;10421497;28;20028;-74
2023/05/11 06:50:43;;;;;;;26.30;14.88;;;;;;;;;;10420945;28;20625;-75
2023/05/11 06:55:43;;;;;;;26.47;13.83;;;;;;;;;;10420760;28;20035;-74
2023/05/11 07:00:43;;;;;;;25.13;12.80;;;;;;;;;;10420725;28;20029;-74
2023/05/11 07:05:44;;;;;;;22.80;13.47;;;;;;;;;;10421677;28;20391;-74
2023/05/11 07:10:44;;;;;;;23.05;13.77;;;;;;;;;;10420921;28;20438;-75
2023/05/11 07:15:44;;;;;;;24.00;12.23;;;;;;;;;;10421890;28;20098;-75
2023/05/11 07:20:48;;;;;;;22.93;12.87;;;;;;;;;;10419635;28;20094;-74
2023/05/11 07:25:49;;;;;;;21.30;11.63;;;;;;;;;;10421470;28;20298;-74
2023/05/11 07:30:52;;;;;;;22.45;12.00;;;;;;;;;;10421351;28;20455;-73
2023/05/11 07:35:52;;;;;;;19.80;11.27;;;;;;;;;;10421299;28;20025;-74
2023/05/11 07:40:53;;;;;;;17.00;10.07;;;;;;;;;;10390512;28;20480;-73
2023/05/11 07:45:53;;;;;;;19.10;10.55;;;;;;;;;;10419366;28;20453;-76
2023/05/11 07:50:54;;;;;;;24.92;13.85;;;;;;;;;;10459196;28;20523;-74
2023/05/11 07:55:54;;;;;;;18.85;11.60;;;;;;;;;;10461106;28;20056;-74
2023/05/11 08:00:55;;;;;;;18.77;11.40;;;;;;;;;;10459871;28;20681;-74
2023/05/11 08:05:55;;;;;;;20.67;9.82;;;;;;;;;;10441984;28;20354;-74
2023/05/11 08:10:55;;;;;;;12.02;9.07;;;;;;;;;;10428007;28;20495;-74
2023/05/11 08:15:56;;;;;;;12.67;8.43;;;;;;;;;;10469441;28;20032;-74
2023/05/11 08:20:56;;;;;;;10.13;7.40;;;;;;;;;;10466853;28;20775;-74
2023/05/11 08:25:56;;;;;;;11.95;7.05;;;;;;;;;;10466833;28;20016;-74
2023/05/11 08:30:57;;;;;;;11.50;7.45;;;;;;;;;;10468299;28;20024;-73
2023/05/11 08:35:58;;;;;;;13.82;8.18;;;;;;;;;;10447920;28;20032;-76
2023/05/11 08:41:00;;;;;;;16.30;7.25;;;;;;;;;;10436147;28;20025;-73
2023/05/11 08:46:02;;;;;;;12.85;8.00;;;;;;;;;;10468118;28;20107;-74
2023/05/11 08:51:03;;;;;;;7.65;6.10;;;;;;;;;;10467233;28;20053;-73
2023/05/11 08:56:06;;;;;;;9.35;6.75;;;;;;;;;;10467168;28;20024;-74
2023/05/11 09:01:06;;;;;;;8.63;6.43;;;;;;;;;;10467566;28;20085;-74
2023/05/11 09:06:07;;;;;;;10.20;5.75;;;;;;;;;;10467434;28;20021;-74
2023/05/11 09:11:10;;;;;;;7.68;5.10;;;;;;;;;;10467467;28;20077;-74
2023/05/11 09:16:11;;;;;;;6.20;5.35;;;;;;;;;;10448137;28;20474;-74
2023/05/11 09:21:11;;;;;;;7.17;4.30;;;;;;;;;;10466386;28;20390;-73
2023/05/11 09:26:23;;;;;;;10.02;5.70;;;;;;;;;;10466242;28;20373;-74
2023/05/11 09:31:39;;;;;;;9.75;5.10;;;;;;;;;;10466120;28;20157;-74
2023/05/11 09:36:49;;;;;;;11.70;5.97;;;;;;;;;;10465837;28;20478;-74
2023/05/11 09:41:49;;;;;;;12.52;6.78;;;;;;;;;;10465827;28;20350;-75
2023/05/11 09:47:10;;;;;;;8.05;6.10;;;;;;;;;;10459068;28;20076;-73
2023/05/11 09:52:10;;;;;;;9.70;6.72;;;;;;;;;;10383241;28;20476;-75
2023/05/11 09:57:24;;;;;;;10.48;6.25;;;;;;;;;;10381984;28;20041;-74
2023/05/11 10:02:26;;;;;;;10.82;7.13;;;;;;;;;;10382056;28;20059;-74
2023/05/11 10:07:27;;;;;;;9.52;5.95;;;;;;;;;;10381831;28;20099;-74
2023/05/11 10:12:29;;;;;;;12.27;7.45;;;;;;;;;;10369556;28;20026;-74
2023/05/11 10:17:29;;;;;;;9.30;5.18;;;;;;;;;;10340903;28;20034;-74
2023/05/11 10:22:30;;;;;;;12.50;6.63;;;;;;;;;;10379013;28;20025;-74
2023/05/11 10:27:30;;;;;;;10.33;6.43;;;;;;;;;;10379051;28;20488;-74
2023/05/11 10:32:34;;;;;;;8.40;5.28;;;;;;;;;;10379395;28;20330;-74
2023/05/11 10:37:35;;;;;;;8.38;4.07;;;;;;;;;;10379895;28;20033;-74
2023/05/11 10:42:50;;;;;;;8.55;4.38;;;;;;;;;;10381809;28;20033;-74
2023/05/11 10:48:00;;;;;;;5.85;3.80;;;;;;;;;;10408490;28;20171;-74
2023/05/11 10:53:00;;;;;;;8.10;4.43;;;;;;;;;;10444539;28;20024;-74
2023/05/11 10:58:09;;;;;;;7.07;4.07;;;;;;;;;;10462729;28;20522;-74
2023/05/11 11:03:10;;;;;;;5.22;3.25;;;;;;;;;;10462460;28;20036;-78
2023/05/11 11:08:10;;;;;;;5.38;4.28;;;;;;;;;;10409810;28;20036;-77
2023/05/11 11:13:19;;;;;;;5.90;3.83;;;;;;;;;;10404374;28;20482;-77
2023/05/11 11:18:22;;;;;;;7.22;3.72;;;;;;;;;;10400605;28;20044;-76
2023/05/11 11:23:40;;;;;;;6.97;4.13;;;;;;;;;;10395697;28;20080;-77
2023/05/11 11:28:53;;;;;;;5.10;3.17;;;;;;;;;;10406382;28;20032;-78
2023/05/11 11:33:57;;;;;;;5.13;3.92;;;;;;;;;;10403736;28;20039;-78
2023/05/11 11:38:58;;;;;;;5.38;3.47;;;;;;;;;;10393155;28;20064;-77
2023/05/11 11:43:59;;;;;;;9.35;4.78;;;;;;;;;;10401516;28;20040;-77
2023/05/11 11:49:06;;;;;;;9.77;4.75;;;;;;;;;;10393147;28;20053;-74
2023/05/11 11:54:07;;;;;;;5.97;4.33;;;;;;;;;;10408344;28;20500;-75
2023/05/11 11:59:10;;;;;;;9.63;4.45;;;;;;;;;;10404002;28;20108;-75
2023/05/11 12:04:38;;;;;;;9.43;5.78;;;;;;;;;;10406590;28;20686;-76
2023/05/11 12:09:38;;;;;;;8.30;5.53;;;;;;;;;;10407898;28;20494;-75
2023/05/11 12:14:40;;;;;;;7.80;5.57;;;;;;;;;;10400591;28;20416;-75
2023/05/11 12:19:43;;;;;;;8.10;5.70;;;;;;;;;;10400596;28;20029;-75
2023/05/11 12:24:44;;;;;;;9.02;6.78;;;;;;;;;;10399191;28;20024;-74
2023/05/11 12:29:48;;;;;;;9.15;6.13;;;;;;;;;;10404546;28;20506;-74
2023/05/11 12:34:56;;;;;;;8.02;5.85;;;;;;;;;;10397199;28;20575;-74
2023/05/11 12:39:57;;;;;;;9.30;5.23;;;;;;;;;;10401180;28;20030;-77
2023/05/11 12:44:57;;;;;;;9.07;5.68;;;;;;;;;;10404299;28;20484;-76
2023/05/11 12:49:57;;;;;;;10.55;5.43;;;;;;;;;;10400295;28;20048;-76
2023/05/11 12:54:59;;;;;;;11.75;6.30;;;;;;;;;;10402488;28;20108;-75
2023/05/11 13:00:11;;;;;;;10.18;5.47;;;;;;;;;;10398785;28;20148;-72
2023/05/11 13:05:12;;;;;;;8.77;5.38;;;;;;;;;;10419978;28;20087;-72
2023/05/11 13:10:13;;;;;;;8.68;5.65;;;;;;;;;;10425617;28;20025;-72
2023/05/11 13:15:13;;;;;;;9.95;5.75;;;;;;;;;;10464506;28;20124;-71
2023/05/11 13:20:16;;;;;;;9.52;6.57;;;;;;;;;;10447686;28;20021;-72
2023/05/11 13:25:18;;;;;;;7.38;5.47;;;;;;;;;;10464932;28;20016;-71
2023/05/11 13:30:22;;;;;;;11.65;5.60;;;;;;;;;;10435581;28;20032;-72
2023/05/11 13:35:22;;;;;;;7.85;5.78;;;;;;;;;;10454973;28;20175;-71
2023/05/11 13:40:23;;;;;;;8.82;6.03;;;;;;;;;;10438156;28;20341;-72
2023/05/11 13:45:23;;;;;;;5.68;4.40;;;;;;;;;;10422203;28;20019;-73
2023/05/11 13:50:25;;;;;;;10.55;5.88;;;;;;;;;;10446567;28;20131;-72
2023/05/11 13:55:25;;;;;;;8.40;5.47;;;;;;;;;;10465052;28;20107;-73
2023/05/11 14:00:26;;;;;;;10.13;5.67;;;;;;;;;;10446427;28;20367;-73
2023/05/11 14:05:26;;;;;;;9.65;5.25;;;;;;;;;;10463927;28;20263;-72
2023/05/11 14:10:26;;;;;;;7.60;4.72;;;;;;;;;;10464361;28;20027;-72
2023/05/11 14:15:27;;;;;;;11.70;5.47;;;;;;;;;;10463811;28;20021;-72
2023/05/11 14:20:27;;;;;;;8.55;5.57;;;;;;;;;;10463922;28;20025;-72
2023/05/11 14:25:28;;;;;;;8.52;6.03;;;;;;;;;;10464483;28;20016;-72
2023/05/11 14:30:28;;;;;;;7.97;4.80;;;;;;;;;;10463553;28;20081;-72
2023/05/11 14:35:28;;;;;;;5.80;4.68;;;;;;;;;;10445120;28;20066;-72
2023/05/11 14:40:30;;;;;;;7.43;4.30;;;;;;;;;;10463024;28;20406;-72
2023/05/11 14:45:31;;;;;;;7.72;5.43;;;;;;;;;;10463351;28;20185;-73
2023/05/11 14:50:31;;;;;;;7.55;4.78;;;;;;;;;;10420871;28;20530;-73
2023/05/11 14:55:32;;;;;;;8.18;5.10;;;;;;;;;;10427514;28;20410;-72
2023/05/11 15:00:33;;;;;;;6.75;4.57;;;;;;;;;;10462648;28;20462;-71
2023/05/11 15:05:33;;;;;;;7.72;5.45;;;;;;;;;;10432883;28;20025;-72
2023/05/11 15:10:38;;;;;;;8.95;5.25;;;;;;;;;;10421177;28;20090;-72
2023/05/11 15:15:38;;;;;;;8.73;3.80;;;;;;;;;;10439885;28;20025;-71
2023/05/11 15:20:39;;;;;;;8.00;5.13;;;;;;;;;;10462436;28;20024;-72
2023/05/11 15:25:39;;;;;;;11.13;5.30;;;;;;;;;;10462647;28;20267;-71
2023/05/11 15:30:40;;;;;;;7.82;5.65;;;;;;;;;;10428885;28;20048;-71
2023/05/11 15:35:41;;;;;;;7.70;5.20;;;;;;;;;;10423704;28;20514;-71
2023/05/11 15:40:41;;;;;;;8.57;5.53;;;;;;;;;;10460957;28;20028;-72
2023/05/11 15:45:42;;;;;;;13.57;6.28;;;;;;;;;;10461885;28;20556;-71
2023/05/11 15:50:45;;;;;;;6.35;4.97;;;;;;;;;;10442849;28;20542;-72
2023/05/11 15:55:49;;;;;;;5.85;4.43;;;;;;;;;;10443920;28;20236;-72
2023/05/11 16:00:49;;;;;;;7.82;5.82;;;;;;;;;;10461053;28;20032;-73
2023/05/11 16:05:50;;;;;;;8.93;5.32;;;;;;;;;;10461455;28;20031;-72
2023/05/11 16:10:50;;;;;;;7.57;5.03;;;;;;;;;;10421341;28;20360;-72
2023/05/11 16:15:51;;;;;;;7.93;4.68;;;;;;;;;;10458733;28;20032;-73
2023/05/11 16:20:51;;;;;;;10.30;5.38;;;;;;;;;;10460242;28;20028;-72
2023/05/11 16:26:00;;;;;;;7.80;5.38;;;;;;;;;;10462415;28;20043;-72
2023/05/11 16:31:01;;;;;;;7.70;4.82;;;;;;;;;;10449955;28;20510;-73
2023/05/11 16:36:01;;;;;;;8.82;4.95;;;;;;;;;;10468296;28;20047;-72
2023/05/11 16:41:02;;;;;;;8.80;5.53;;;;;;;;;;10467783;28;20133;-72
2023/05/11 16:46:02;;;;;;;9.30;5.50;;;;;;;;;;10467931;28;20411;-72
2023/05/11 16:51:02;;;;;;;8.52;5.32;;;;;;;;;;10466696;28;20057;-71
2023/05/11 16:56:03;;;;;;;6.73;5.13;;;;;;;;;;10449551;28;20031;-71
2023/05/11 17:01:04;;;;;;;8.57;5.15;;;;;;;;;;10441559;28;20025;-71
2023/05/11 17:06:04;;;;;;;8.45;5.82;;;;;;;;;;10448683;28;20080;-71
2023/05/11 17:11:04;;;;;;;10.87;5.70;;;;;;;;;;10427579;28;20037;-70
2023/05/11 17:16:05;;;;;;;7.53;5.22;;;;;;;;;;10396543;28;20021;-72
2023/05/11 17:21:05;;;;;;;10.75;6.20;;;;;;;;;;10397938;28;20130;-71
2023/05/11 17:26:09;;;;;;;11.85;6.13;;;;;;;;;;10403640;28;20021;-72
2023/05/11 17:31:11;;;;;;;8.70;6.38;;;;;;;;;;10402047;28;20886;-70
2023/05/11 17:36:11;;;;;;;9.82;6.40;;;;;;;;;;10391824;28;20033;-70
2023/05/11 17:41:12;;;;;;;7.40;5.75;;;;;;;;;;10396627;28;20045;-70
2023/05/11 17:46:13;;;;;;;8.50;6.40;;;;;;;;;;10380310;28;20581;-69
2023/05/11 17:51:13;;;;;;;12.97;6.97;;;;;;;;;;10400244;28;20605;-69
2023/05/11 17:56:14;;;;;;;9.98;6.03;;;;;;;;;;10399277;28;20272;-70
2023/05/11 18:01:15;;;;;;;10.50;6.63;;;;;;;;;;10393914;28;20036;-70
2023/05/11 18:06:15;;;;;;;9.40;6.40;;;;;;;;;;10398139;28;20057;-71
2023/05/11 18:11:16;;;;;;;11.23;6.50;;;;;;;;;;10397958;28;20025;-70
2023/05/11 18:16:16;;;;;;;9.98;6.80;;;;;;;;;;10404250;28;20459;-72
2023/05/11 18:21:17;;;;;;;18.27;7.20;;;;;;;;;;10407464;28;20036;-74
2023/05/11 18:26:18;;;;;;;8.35;6.22;;;;;;;;;;10408018;28;20760;-73
2023/05/11 18:31:19;;;;;;;6.50;5.82;;;;;;;;;;10402647;28;20028;-73
2023/05/11 18:36:20;;;;;;;12.65;7.07;;;;;;;;;;10391314;28;20468;-72
2023/05/11 18:41:20;;;;;;;9.90;6.38;;;;;;;;;;10399159;28;20131;-72
2023/05/11 18:46:20;;;;;;;10.93;6.65;;;;;;;;;;10403754;28;20091;-72
2023/05/11 18:51:24;;;;;;;9.00;5.90;;;;;;;;;;10405672;28;20127;-74
2023/05/11 18:56:25;;;;;;;11.60;6.57;;;;;;;;;;10384223;28;20282;-74
2023/05/11 19:01:25;;;;;;;10.37;6.87;;;;;;;;;;10407322;28;20056;-72
2023/05/11 19:06:25;;;;;;;5.05;4.55;;;;;;;;;;10407968;28;20597;-69
2023/05/11 19:11:26;;;;;;;7.27;5.60;;;;;;;;;;10403401;28;20108;-72
2023/05/11 19:16:28;;;;;;;7.25;5.50;;;;;;;;;;10400184;28;20275;-70
2023/05/11 19:21:28;;;;;;;8.07;6.03;;;;;;;;;;10401714;28;20039;-74
2023/05/11 19:26:28;;;;;;;9.23;6.67;;;;;;;;;;10408687;28;20036;-70
2023/05/11 19:31:30;;;;;;;7.43;6.55;;;;;;;;;;10406901;28;20036;-72
2023/05/11 19:36:30;;;;;;;7.13;5.82;;;;;;;;;;10403325;28;20126;-68
2023/05/11 19:41:30;;;;;;;9.70;6.60;;;;;;;;;;10407206;28;20071;-69
2023/05/11 19:46:31;;;;;;;10.80;6.47;;;;;;;;;;10407204;28;20521;-70
2023/05/11 19:51:31;;;;;;;10.20;6.35;;;;;;;;;;10399816;28;20531;-75
2023/05/11 19:56:32;;;;;;;11.15;5.90;;;;;;;;;;10389108;28;20032;-70
2023/05/11 20:01:32;;;;;;;12.00;6.00;;;;;;;;;;10403281;28;20119;-76
2023/05/11 20:06:32;;;;;;;7.67;6.20;;;;;;;;;;10416815;28;20044;-77
2023/05/11 20:11:33;;;;;;;8.70;6.37;;;;;;;;;;10436665;28;20266;-78
2023/05/11 20:16:33;;;;;;;11.55;6.22;;;;;;;;;;10419777;28;20496;-74
2023/05/11 20:21:35;;;;;;;16.95;7.28;;;;;;;;;;10384092;28;20029;-75
2023/05/11 20:26:38;;;;;;;8.45;5.47;;;;;;;;;;10392722;28;20029;-74
2023/05/11 20:31:38;;;;;;;12.30;6.72;;;;;;;;;;10413953;28;20040;-75
2023/05/11 20:36:39;;;;;;;8.13;5.83;;;;;;;;;;10448015;28;20576;-75
2023/05/11 20:41:39;;;;;;;11.47;6.60;;;;;;;;;;10460616;28;20028;-75
2023/05/11 20:46:39;;;;;;;8.82;5.45;;;;;;;;;;10451414;28;20297;-76
2023/05/11 20:51:40;;;;;;;8.15;5.00;;;;;;;;;;10437114;28;20047;-76
2023/05/11 20:56:41;;;;;;;13.18;5.53;;;;;;;;;;10466500;28;20463;-74
2023/05/11 21:01:41;;;;;;;5.45;4.20;;;;;;;;;;10466392;28;20032;-74
2023/05/11 21:06:42;;;;;;;7.80;5.10;;;;;;;;;;10447491;28;20517;-75
2023/05/11 21:11:42;;;;;;;8.05;4.72;;;;;;;;;;10465462;28;20030;-75
2023/05/11 21:16:43;;;;;;;13.87;5.23;;;;;;;;;;10439042;28;20055;-75
2023/05/11 21:21:43;;;;;;;6.47;4.73;;;;;;;;;;10424783;28;20029;-75
2023/05/11 21:26:44;;;;;;;6.88;4.88;;;;;;;;;;10446002;28;20293;-76
2023/05/11 21:31:45;;;;;;;15.77;5.55;;;;;;;;;;10465300;28;20020;-76
2023/05/11 21:36:45;;;;;;;7.73;5.37;;;;;;;;;;10463689;28;20773;-75
2023/05/11 21:41:46;;;;;;;7.90;4.97;;;;;;;;;;10464358;28;20279;-75
2023/05/11 21:46:46;;;;;;;8.20;5.55;;;;;;;;;;10470617;28;20045;-75
2023/05/11 21:51:47;;;;;;;6.85;4.60;;;;;;;;;;10447495;28;20571;-75
2023/05/11 21:56:48;;;;;;;8.35;5.25;;;;;;;;;;10468812;28;20020;-80
2023/05/11 22:01:48;;;;;;;6.65;4.25;;;;;;;;;;10453290;28;20102;-80
2023/05/11 22:06:49;;;;;;;15.32;5.15;;;;;;;;;;10469525;28;20017;-78
2023/05/11 22:11:49;;;;;;;15.70;6.63;;;;;;;;;;10439606;28;20035;-80
2023/05/11 22:16:49;;;;;;;11.45;6.78;;;;;;;;;;10426796;28;20039;-81
2023/05/11 22:21:49;;;;;;;8.75;5.75;;;;;;;;;;10457815;28;20028;-81
2023/05/11 22:26:50;;;;;;;18.97;8.73;;;;;;;;;;10420165;28;20084;-81
2023/05/11 22:31:51;;;;;;;12.80;7.63;;;;;;;;;;10445520;28;20460;-80
2023/05/11 22:36:51;;;;;;;11.40;7.13;;;;;;;;;;10431352;28;20033;-81
2023/05/11 22:41:51;;;;;;;8.68;6.55;;;;;;;;;;10450931;28;20028;-80
2023/05/11 22:46:54;;;;;;;10.87;7.57;;;;;;;;;;10469690;28;20039;-80
2023/05/11 22:51:57;;;;;;;13.77;7.32;;;;;;;;;;10470389;28;20891;-81
2023/05/11 22:56:57;;;;;;;12.25;6.97;;;;;;;;;;10452110;28;20696;-81
2023/05/11 23:02:00;;;;;;;10.77;7.03;;;;;;;;;;10442377;28;20027;-81
2023/05/11 23:07:00;;;;;;;14.25;6.90;;;;;;;;;;10401431;28;20013;-81
2023/05/11 23:12:01;;;;;;;10.85;6.55;;;;;;;;;;10387814;28;20519;-81
2023/05/11 23:17:01;;;;;;;14.18;6.07;;;;;;;;;;10434355;28;20020;-81
2023/05/11 23:22:02;;;;;;;16.92;7.25;;;;;;;;;;10470133;28;20464;-81
2023/05/11 23:27:02;;;;;;;8.32;6.80;;;;;;;;;;10469479;28;20029;-81
2023/05/11 23:32:03;;;;;;;9.20;6.50;;;;;;;;;;10453981;28;20115;-82
2023/05/11 23:37:03;;;;;;;11.07;7.05;;;;;;;;;;10459602;28;20448;-81
2023/05/11 23:42:04;;;;;;;9.48;5.95;;;;;;;;;;10452405;28;20021;-81
2023/05/11 23:47:04;;;;;;;9.43;5.28;;;;;;;;;;10418196;28;20029;-80
2023/05/11 23:52:05;;;;;;;7.43;5.25;;;;;;;;;;10456467;28;20048;-80
2023/05/11 23:57:05;;;;;;;6.68;5.30;;;;;;;;;;10444462;28;20028;-81
